Time;durP1;ratioP1;P1;durP2;ratioP2;P2;SDS_P1;SDS_P2;PMS_P1;PMS_P2;Temp;Humidity;BMP_temperature;BMP_pressure;BME280_temperature;BME280_humidity;BME280_pressure;Samples;Min_cycle;Max_cycle;Signal;HPM_P1;HPM_P2
2022/05/22 00:02:25;;;;;;;20.53;18.80;;;;;;;;;;5093048;28;20427;-88
2022/05/22 00:04:52;;;;;;;19.20;17.97;;;;;;;;;;5094012;28;20980;-88
2022/05/22 00:07:20;;;;;;;19.23;18.23;;;;;;;;;;5094177;28;20440;-88
2022/05/22 00:09:47;;;;;;;19.70;18.57;;;;;;;;;;5094269;28;20438;-88
2022/05/22 00:12:15;;;;;;;19.00;18.00;;;;;;;;;;5094313;28;20412;-89
2022/05/22 00:14:42;;;;;;;19.00;18.00;;;;;;;;;;5094066;28;20459;-88
2022/05/22 00:17:10;;;;;;;20.00;18.77;;;;;;;;;;5094291;28;20453;-87
2022/05/22 00:19:39;;;;;;;19.50;18.50;;;;;;;;;;5094072;28;20428;-88
2022/05/22 00:22:07;;;;;;;20.17;18.77;;;;;;;;;;5094043;28;20428;-88
2022/05/22 00:24:34;;;;;;;20.17;19.00;;;;;;;;;;5094347;28;20477;-88
2022/05/22 00:27:02;;;;;;;19.17;18.20;;;;;;;;;;5093013;28;20466;-88
2022/05/22 00:29:30;;;;;;;20.20;19.00;;;;;;;;;;5093665;28;20927;-88
2022/05/22 00:31:57;;;;;;;20.43;19.23;;;;;;;;;;5093820;28;20499;-88
2022/05/22 00:34:25;;;;;;;19.97;18.60;;;;;;;;;;5093489;28;20408;-88
2022/05/22 00:36:54;;;;;;;19.40;18.30;;;;;;;;;;5094068;28;20432;-88
2022/05/22 00:39:21;;;;;;;20.60;19.40;;;;;;;;;;5094030;28;20444;-88
2022/05/22 00:41:50;;;;;;;19.37;18.37;;;;;;;;;;5094069;28;20412;-88
2022/05/22 00:44:18;;;;;;;19.40;18.40;;;;;;;;;;5093946;28;20448;-88
2022/05/22 00:46:45;;;;;;;19.60;18.70;;;;;;;;;;5094108;28;20433;-88
2022/05/22 00:49:15;;;;;;;19.33;18.33;;;;;;;;;;5094028;28;20576;-88
2022/05/22 00:51:44;;;;;;;19.47;18.53;;;;;;;;;;5093832;28;20857;-88
2022/05/22 00:54:16;;;;;;;20.47;19.33;;;;;;;;;;5093993;28;20433;-88
2022/05/22 00:56:45;;;;;;;19.23;18.23;;;;;;;;;;5093665;28;20415;-88
2022/05/22 00:59:14;;;;;;;19.30;18.27;;;;;;;;;;5093917;28;20412;-88
2022/05/22 01:01:42;;;;;;;19.57;18.40;;;;;;;;;;5093962;28;20467;-88
2022/05/22 01:04:11;;;;;;;19.50;18.47;;;;;;;;;;5093524;28;20930;-88
2022/05/22 01:06:39;;;;;;;18.90;18.00;;;;;;;;;;5093704;28;20432;-85
2022/05/22 01:09:06;;;;;;;20.10;18.80;;;;;;;;;;5093917;28;20455;-87
2022/05/22 01:11:37;;;;;;;19.73;18.73;;;;;;;;;;5093915;28;20436;-86
2022/05/22 01:14:07;;;;;;;19.40;18.40;;;;;;;;;;5097217;28;20519;-86
2022/05/22 01:16:35;;;;;;;20.17;18.67;;;;;;;;;;5097107;28;20491;-87
2022/05/22 01:19:02;;;;;;;19.53;18.43;;;;;;;;;;5096917;28;20423;-87
2022/05/22 01:21:31;;;;;;;19.23;18.23;;;;;;;;;;5097283;28;20795;-87
2022/05/22 01:24:00;;;;;;;19.33;18.30;;;;;;;;;;5096838;28;20438;-87
2022/05/22 01:26:29;;;;;;;19.37;18.30;;;;;;;;;;5096821;28;20913;-86
2022/05/22 01:28:56;;;;;;;19.83;18.70;;;;;;;;;;5096950;28;20510;-86
2022/05/22 01:31:24;;;;;;;18.83;17.83;;;;;;;;;;5096696;28;20908;-87
2022/05/22 01:33:51;;;;;;;19.40;18.30;;;;;;;;;;5095836;28;20470;-87
2022/05/22 01:36:19;;;;;;;18.77;17.63;;;;;;;;;;5096719;28;20431;-86
2022/05/22 01:38:46;;;;;;;19.47;18.47;;;;;;;;;;5096734;28;20436;-87
2022/05/22 01:41:15;;;;;;;19.23;18.13;;;;;;;;;;5096915;28;20419;-86
2022/05/22 01:43:42;;;;;;;19.10;18.00;;;;;;;;;;5096716;28;20477;-86
2022/05/22 01:46:10;;;;;;;18.97;17.80;;;;;;;;;;5096748;28;20435;-87
2022/05/22 01:48:37;;;;;;;19.33;18.23;;;;;;;;;;5095379;28;20468;-87
2022/05/22 01:51:06;;;;;;;19.23;18.23;;;;;;;;;;5095259;28;20485;-87
2022/05/22 01:53:34;;;;;;;19.60;18.50;;;;;;;;;;5096295;28;20416;-87
2022/05/22 01:56:01;;;;;;;19.33;18.23;;;;;;;;;;5096849;28;20428;-87
2022/05/22 01:58:31;;;;;;;19.20;18.20;;;;;;;;;;5096581;28;20451;-86
2022/05/22 02:00:58;;;;;;;19.47;18.17;;;;;;;;;;5096457;28;20413;-86
2022/05/22 02:03:25;;;;;;;18.77;17.77;;;;;;;;;;5096471;28;20770;-86
2022/05/22 02:05:53;;;;;;;19.03;18.03;;;;;;;;;;5095869;28;20478;-87
2022/05/22 02:08:19;;;;;;;19.63;18.43;;;;;;;;;;5095875;28;20937;-86
2022/05/22 02:10:46;;;;;;;18.77;17.70;;;;;;;;;;5096280;28;20424;-87
2022/05/22 02:13:16;;;;;;;19.40;18.30;;;;;;;;;;5096599;28;20899;-87
2022/05/22 02:15:45;;;;;;;19.37;18.20;;;;;;;;;;5096078;28;20445;-87
2022/05/22 02:18:13;;;;;;;20.47;18.63;;;;;;;;;;5095963;28;20445;-87
2022/05/22 02:20:40;;;;;;;19.50;18.30;;;;;;;;;;5095903;28;20828;-87
2022/05/22 02:23:07;;;;;;;19.30;18.10;;;;;;;;;;5095938;28;20432;-87
2022/05/22 02:25:36;;;;;;;19.27;18.27;;;;;;;;;;5095798;27;20489;-87
2022/05/22 02:28:05;;;;;;;19.83;18.30;;;;;;;;;;5095511;28;20408;-87
2022/05/22 02:30:33;;;;;;;18.87;17.97;;;;;;;;;;5095975;28;20438;-87
2022/05/22 02:33:02;;;;;;;18.70;17.70;;;;;;;;;;5096002;28;20430;-87
2022/05/22 02:35:30;;;;;;;18.80;17.70;;;;;;;;;;5095884;28;20434;-87
2022/05/22 02:37:58;;;;;;;18.97;18.00;;;;;;;;;;5095503;28;20798;-87
2022/05/22 02:40:27;;;;;;;19.10;18.20;;;;;;;;;;5095432;28;20445;-87
2022/05/22 02:42:54;;;;;;;20.03;18.53;;;;;;;;;;5095572;28;20439;-87
2022/05/22 02:45:22;;;;;;;19.50;18.40;;;;;;;;;;5094541;28;20415;-87
2022/05/22 02:47:50;;;;;;;18.93;17.87;;;;;;;;;;5095717;28;20407;-87
2022/05/22 02:50:20;;;;;;;19.77;18.60;;;;;;;;;;5095156;28;20455;-87
2022/05/22 02:52:47;;;;;;;19.83;18.53;;;;;;;;;;5095622;28;20458;-87
2022/05/22 02:55:16;;;;;;;19.30;18.20;;;;;;;;;;5095488;28;20811;-87
2022/05/22 02:57:44;;;;;;;19.57;18.40;;;;;;;;;;5094100;28;20448;-87
2022/05/22 03:00:13;;;;;;;19.53;18.27;;;;;;;;;;5095192;28;20453;-86
2022/05/22 03:02:40;;;;;;;20.17;18.63;;;;;;;;;;5095206;28;20452;-86
2022/05/22 03:05:08;;;;;;;19.50;18.50;;;;;;;;;;5095034;28;20477;-87
2022/05/22 03:07:37;;;;;;;19.10;18.00;;;;;;;;;;5095254;28;20458;-86
2022/05/22 03:10:05;;;;;;;18.23;17.33;;;;;;;;;;5094678;28;20558;-86
2022/05/22 03:12:33;;;;;;;18.83;17.90;;;;;;;;;;5095085;28;20774;-87
2022/05/22 03:15:01;;;;;;;19.40;18.30;;;;;;;;;;5095156;28;20466;-87
2022/05/22 03:17:28;;;;;;;19.20;18.10;;;;;;;;;;5094989;28;20416;-86
2022/05/22 03:19:56;;;;;;;18.80;17.80;;;;;;;;;;5094831;28;20769;-85
2022/05/22 03:22:23;;;;;;;19.40;17.90;;;;;;;;;;5094789;28;20439;-86
2022/05/22 03:24:52;;;;;;;19.33;18.20;;;;;;;;;;5094541;28;20431;-86
2022/05/22 03:27:20;;;;;;;19.80;18.80;;;;;;;;;;5094702;28;20828;-86
2022/05/22 03:29:48;;;;;;;19.57;18.60;;;;;;;;;;5094651;28;20485;-85
2022/05/22 03:32:15;;;;;;;19.77;18.50;;;;;;;;;;5094580;28;20428;-85
2022/05/22 03:34:43;;;;;;;19.47;18.30;;;;;;;;;;5094176;28;20444;-86
2022/05/22 03:37:11;;;;;;;19.10;18.10;;;;;;;;;;5094520;28;20442;-86
2022/05/22 03:39:38;;;;;;;20.27;19.27;;;;;;;;;;5094737;28;20520;-85
2022/05/22 03:42:10;;;;;;;19.90;18.60;;;;;;;;;;5094566;28;20408;-85
2022/05/22 03:44:37;;;;;;;20.20;19.00;;;;;;;;;;5094114;28;20415;-86
2022/05/22 03:47:05;;;;;;;19.10;18.10;;;;;;;;;;5094126;28;20485;-85
2022/05/22 03:49:32;;;;;;;19.43;18.23;;;;;;;;;;5094326;28;20488;-86
2022/05/22 03:51:59;;;;;;;18.97;18.03;;;;;;;;;;5094239;28;20412;-86
2022/05/22 03:54:27;;;;;;;18.80;17.90;;;;;;;;;;5094494;28;20451;-86
2022/05/22 03:56:56;;;;;;;18.80;17.70;;;;;;;;;;5093142;28;20453;-85
2022/05/22 03:59:25;;;;;;;18.77;17.80;;;;;;;;;;5094516;28;20408;-86
2022/05/22 04:01:53;;;;;;;19.17;18.20;;;;;;;;;;5094328;28;20441;-86
2022/05/22 04:04:20;;;;;;;19.57;18.47;;;;;;;;;;5093935;28;20845;-85
2022/05/22 04:06:48;;;;;;;19.13;18.03;;;;;;;;;;5093996;28;20433;-86
2022/05/22 04:09:15;;;;;;;18.63;17.53;;;;;;;;;;5094022;28;20447;-86
2022/05/22 04:11:42;;;;;;;19.33;18.03;;;;;;;;;;5094082;28;20423;-85
2022/05/22 04:14:10;;;;;;;18.17;17.37;;;;;;;;;;5094149;28;20417;-85
2022/05/22 04:16:39;;;;;;;19.13;18.13;;;;;;;;;;5094198;28;20433;-86
2022/05/22 04:19:06;;;;;;;18.73;17.63;;;;;;;;;;5094135;28;20416;-85
2022/05/22 04:21:34;;;;;;;18.80;17.80;;;;;;;;;;5094156;28;20411;-86
2022/05/22 04:26:46;;;;;;;18.50;17.60;;;;;;;;;;5093894;28;20462;-86
2022/05/22 04:29:13;;;;;;;18.80;17.70;;;;;;;;;;5093867;28;20448;-85
2022/05/22 04:31:42;;;;;;;20.57;19.10;;;;;;;;;;5094017;28;20807;-86
2022/05/22 04:34:10;;;;;;;19.23;18.13;;;;;;;;;;5093971;28;20832;-86
2022/05/22 04:36:37;;;;;;;20.17;19.07;;;;;;;;;;5094074;28;20434;-85
2022/05/22 04:39:05;;;;;;;18.80;17.90;;;;;;;;;;5093854;28;20412;-85
2022/05/22 04:41:32;;;;;;;19.23;18.27;;;;;;;;;;5093687;28;20436;-85
2022/05/22 04:43:59;;;;;;;19.17;17.93;;;;;;;;;;5093853;28;20447;-85
2022/05/22 04:46:27;;;;;;;19.70;18.60;;;;;;;;;;5094030;28;20461;-86
2022/05/22 04:48:55;;;;;;;20.40;19.13;;;;;;;;;;5097510;28;20447;-86
2022/05/22 04:51:23;;;;;;;19.57;18.50;;;;;;;;;;5097516;28;20441;-86
2022/05/22 04:53:51;;;;;;;19.43;18.33;;;;;;;;;;5097740;28;20453;-86
2022/05/22 04:56:19;;;;;;;19.60;18.70;;;;;;;;;;5097682;28;20506;-86
2022/05/22 04:58:47;;;;;;;20.40;19.30;;;;;;;;;;5097608;28;20442;-86
2022/05/22 05:01:15;;;;;;;19.00;18.10;;;;;;;;;;5097191;28;20421;-86
2022/05/22 05:03:42;;;;;;;19.63;18.50;;;;;;;;;;5097070;28;20449;-85
2022/05/22 05:06:11;;;;;;;19.47;18.57;;;;;;;;;;5097950;28;20465;-86
2022/05/22 05:08:38;;;;;;;19.40;18.33;;;;;;;;;;5097480;28;20833;-84
2022/05/22 05:11:06;;;;;;;18.70;17.70;;;;;;;;;;5097424;28;20419;-86
2022/05/22 05:13:33;;;;;;;19.27;18.13;;;;;;;;;;5097791;28;20433;-86
2022/05/22 05:16:02;;;;;;;18.60;17.70;;;;;;;;;;5097825;28;20824;-86
2022/05/22 05:18:30;;;;;;;18.90;17.73;;;;;;;;;;5101788;28;20449;-86
2022/05/22 05:20:59;;;;;;;18.90;18.00;;;;;;;;;;5098586;28;20440;-86
2022/05/22 05:23:28;;;;;;;19.80;18.47;;;;;;;;;;5097673;28;20437;-86
2022/05/22 05:25:55;;;;;;;18.87;17.93;;;;;;;;;;5097615;28;20408;-85
2022/05/22 05:28:23;;;;;;;19.40;18.00;;;;;;;;;;5097380;28;20433;-86
2022/05/22 05:30:50;;;;;;;19.43;18.53;;;;;;;;;;5097180;28;20541;-86
2022/05/22 05:33:17;;;;;;;19.43;18.23;;;;;;;;;;5097494;28;20404;-86
2022/05/22 05:35:45;;;;;;;19.20;18.20;;;;;;;;;;5096954;28;20479;-86
2022/05/22 05:38:12;;;;;;;19.00;18.03;;;;;;;;;;5097041;28;20919;-86
2022/05/22 05:40:41;;;;;;;17.90;17.10;;;;;;;;;;5096839;28;20422;-86
2022/05/22 05:43:09;;;;;;;19.33;18.33;;;;;;;;;;5097231;28;20439;-86
2022/05/22 05:45:36;;;;;;;18.77;17.43;;;;;;;;;;5097078;28;20412;-86
2022/05/22 05:48:04;;;;;;;19.10;17.90;;;;;;;;;;5097373;28;20416;-88
2022/05/22 05:50:31;;;;;;;18.17;17.17;;;;;;;;;;5097347;28;20484;-89
2022/05/22 05:52:59;;;;;;;18.37;17.47;;;;;;;;;;5097607;28;20913;-87
2022/05/22 05:55:27;;;;;;;18.43;17.33;;;;;;;;;;5097822;28;20444;-86
2022/05/22 05:57:56;;;;;;;18.00;17.10;;;;;;;;;;5098310;28;20441;-87
2022/05/22 06:00:25;;;;;;;19.20;17.90;;;;;;;;;;5098248;28;20869;-84
2022/05/22 06:02:53;;;;;;;18.90;17.57;;;;;;;;;;5098307;28;20423;-85
2022/05/22 06:05:21;;;;;;;19.23;17.80;;;;;;;;;;5095912;28;20546;-86
2022/05/22 06:07:51;;;;;;;18.63;17.57;;;;;;;;;;5095821;28;20427;-85
2022/05/22 06:10:20;;;;;;;18.43;17.53;;;;;;;;;;5095777;28;21017;-84
2022/05/22 06:12:48;;;;;;;18.83;17.87;;;;;;;;;;5094652;28;20445;-85
2022/05/22 06:15:16;;;;;;;19.90;18.60;;;;;;;;;;5096122;28;20451;-84
2022/05/22 06:17:46;;;;;;;19.00;18.00;;;;;;;;;;5096311;28;20415;-85
2022/05/22 06:20:15;;;;;;;18.70;17.70;;;;;;;;;;5096217;28;20437;-84
2022/05/22 06:22:44;;;;;;;20.03;19.03;;;;;;;;;;5098001;28;20949;-85
2022/05/22 06:25:12;;;;;;;18.70;17.70;;;;;;;;;;5096799;28;20457;-85
2022/05/22 06:27:40;;;;;;;18.67;17.50;;;;;;;;;;5095790;28;20867;-85
2022/05/22 06:30:08;;;;;;;19.13;18.13;;;;;;;;;;5095666;28;20448;-85
2022/05/22 06:32:39;;;;;;;19.90;18.57;;;;;;;;;;5095672;28;20910;-85
2022/05/22 06:35:07;;;;;;;19.07;18.07;;;;;;;;;;5095500;28;20479;-85
2022/05/22 06:37:34;;;;;;;19.37;18.20;;;;;;;;;;5095543;28;20420;-85
2022/05/22 06:40:00;;;;;;;19.43;18.30;;;;;;;;;;5095536;28;20420;-84
2022/05/22 06:42:29;;;;;;;18.97;17.97;;;;;;;;;;5095459;28;20873;-85
2022/05/22 06:44:58;;;;;;;19.70;18.40;;;;;;;;;;5094274;28;20420;-85
2022/05/22 06:47:26;;;;;;;20.17;18.50;;;;;;;;;;5095613;28;20441;-86
2022/05/22 06:49:55;;;;;;;20.13;18.90;;;;;;;;;;5095567;28;20831;-83
2022/05/22 06:52:22;;;;;;;20.50;19.30;;;;;;;;;;5095574;28;20438;-85
2022/05/22 06:54:49;;;;;;;20.30;19.13;;;;;;;;;;5095605;28;20421;-86
2022/05/22 06:57:18;;;;;;;20.20;19.07;;;;;;;;;;5095453;28;20482;-87
2022/05/22 06:59:46;;;;;;;20.87;19.50;;;;;;;;;;5096191;28;20444;-87
2022/05/22 07:02:14;;;;;;;20.30;19.30;;;;;;;;;;5097466;28;20408;-87
2022/05/22 07:04:42;;;;;;;20.60;19.30;;;;;;;;;;5095092;28;20469;-86
2022/05/22 07:07:11;;;;;;;20.90;19.40;;;;;;;;;;5095123;28;20441;-86
2022/05/22 07:09:39;;;;;;;19.40;18.40;;;;;;;;;;5097013;28;20485;-87
2022/05/22 07:12:07;;;;;;;20.97;19.63;;;;;;;;;;5095960;28;20449;-87
2022/05/22 07:14:35;;;;;;;19.70;18.40;;;;;;;;;;5095671;28;20449;-86
2022/05/22 07:17:04;;;;;;;20.73;19.20;;;;;;;;;;5096281;28;20408;-87
2022/05/22 07:19:34;;;;;;;20.50;19.23;;;;;;;;;;5095493;27;20457;-87
2022/05/22 07:22:01;;;;;;;19.70;18.30;;;;;;;;;;5095603;28;20507;-87
2022/05/22 07:24:32;;;;;;;19.90;18.80;;;;;;;;;;5098363;28;20452;-87
2022/05/22 07:26:59;;;;;;;19.50;18.50;;;;;;;;;;5096379;28;20449;-87
2022/05/22 07:29:26;;;;;;;20.13;18.80;;;;;;;;;;5094946;28;20442;-87
2022/05/22 07:31:56;;;;;;;19.17;18.10;;;;;;;;;;5095283;28;20434;-87
2022/05/22 07:34:25;;;;;;;19.77;18.53;;;;;;;;;;5095737;28;20412;-87
2022/05/22 07:36:55;;;;;;;19.80;18.70;;;;;;;;;;5096059;28;20408;-87
2022/05/22 07:39:22;;;;;;;20.40;19.20;;;;;;;;;;5095985;28;20813;-87
2022/05/22 07:41:51;;;;;;;21.80;20.40;;;;;;;;;;5096570;28;20563;-85
2022/05/22 07:44:18;;;;;;;21.17;19.77;;;;;;;;;;5094291;28;20416;-83
2022/05/22 07:46:46;;;;;;;20.57;18.97;;;;;;;;;;5096330;28;20404;-92
2022/05/22 07:50:16;;;;;;;20.27;18.90;;;;;;;;;;5100371;28;20416;-85
2022/05/22 07:52:04;;;;;;;20.70;19.40;;;;;;;;;;5093529;28;20441;-85
2022/05/22 07:54:32;;;;;;;20.10;18.93;;;;;;;;;;5095413;28;20972;-85
2022/05/22 07:57:01;;;;;;;19.77;18.43;;;;;;;;;;5096556;28;20434;-85
2022/05/22 07:59:29;;;;;;;19.83;18.80;;;;;;;;;;5097761;28;20462;-85
2022/05/22 08:01:56;;;;;;;20.57;19.27;;;;;;;;;;5094899;28;20452;-85
2022/05/22 08:04:23;;;;;;;20.40;18.90;;;;;;;;;;5095088;28;20470;-85
2022/05/22 08:06:51;;;;;;;19.93;18.70;;;;;;;;;;5094352;28;20951;-85
2022/05/22 08:09:19;;;;;;;20.47;18.90;;;;;;;;;;5095072;28;20469;-85
2022/05/22 08:11:46;;;;;;;20.50;19.27;;;;;;;;;;5094868;28;20501;-85
2022/05/22 08:14:15;;;;;;;19.93;18.93;;;;;;;;;;5096288;28;20437;-85
2022/05/22 08:16:43;;;;;;;21.37;20.27;;;;;;;;;;5096281;28;20457;-85
2022/05/22 08:19:10;;;;;;;21.43;19.93;;;;;;;;;;5101565;28;20412;-85
2022/05/22 08:21:38;;;;;;;21.40;19.93;;;;;;;;;;5101895;28;20446;-86
2022/05/22 08:24:06;;;;;;;21.10;19.90;;;;;;;;;;5101601;28;20915;-84
2022/05/22 08:26:33;;;;;;;22.10;20.87;;;;;;;;;;5100139;28;20433;-78
2022/05/22 08:29:00;;;;;;;22.37;21.07;;;;;;;;;;5098117;28;20915;-78
2022/05/22 08:31:29;;;;;;;22.07;20.77;;;;;;;;;;5098625;28;20451;-78
2022/05/22 08:33:57;;;;;;;21.33;20.13;;;;;;;;;;5099907;28;20452;-78
2022/05/22 08:36:24;;;;;;;21.03;19.83;;;;;;;;;;5098465;28;20438;-78
2022/05/22 08:38:52;;;;;;;21.50;20.30;;;;;;;;;;5097078;28;20518;-78
2022/05/22 08:41:21;;;;;;;21.57;20.33;;;;;;;;;;5097511;28;21021;-78
2022/05/22 08:43:51;;;;;;;21.63;20.30;;;;;;;;;;5101085;28;20462;-87
2022/05/22 08:46:22;;;;;;;20.80;19.50;;;;;;;;;;5099916;28;20464;-86
2022/05/22 08:48:56;;;;;;;21.57;20.47;;;;;;;;;;5100120;28;20886;-85
2022/05/22 08:51:30;;;;;;;22.07;20.77;;;;;;;;;;5098182;28;20489;-86
2022/05/22 08:54:00;;;;;;;21.77;20.50;;;;;;;;;;5100396;28;20449;-86
2022/05/22 08:59:21;;;;;;;20.60;19.33;;;;;;;;;;5099670;28;20399;-85
2022/05/22 09:01:52;;;;;;;21.10;19.80;;;;;;;;;;5102169;28;20408;-84
2022/05/22 09:04:26;;;;;;;20.77;19.57;;;;;;;;;;5100458;28;20485;-86
2022/05/22 09:07:00;;;;;;;20.40;19.40;;;;;;;;;;5105533;28;20819;-95
2022/05/22 09:09:29;;;;;;;21.70;20.20;;;;;;;;;;5101293;28;20408;-81
2022/05/22 09:12:02;;;;;;;21.07;19.90;;;;;;;;;;5098804;28;20568;-86
2022/05/22 09:14:32;;;;;;;21.33;20.23;;;;;;;;;;5103164;28;20417;-89
2022/05/22 09:17:02;;;;;;;21.60;20.40;;;;;;;;;;5099073;28;20774;-85
2022/05/22 09:19:34;;;;;;;22.00;20.50;;;;;;;;;;5097344;28;20460;-81
2022/05/22 09:22:05;;;;;;;21.43;20.30;;;;;;;;;;5096946;28;20444;-79
2022/05/22 09:24:35;;;;;;;21.30;20.10;;;;;;;;;;5096526;28;20428;-79
2022/05/22 09:27:06;;;;;;;21.10;20.00;;;;;;;;;;5096176;28;20433;-79
2022/05/22 09:29:42;;;;;;;21.63;20.30;;;;;;;;;;5097217;28;20465;-79
2022/05/22 09:32:15;;;;;;;20.20;19.10;;;;;;;;;;5095118;28;20477;-79
2022/05/22 09:34:48;;;;;;;20.53;19.23;;;;;;;;;;5095477;28;20500;-78
2022/05/22 09:37:21;;;;;;;21.30;20.00;;;;;;;;;;5096472;28;20457;-78
2022/05/22 09:40:06;;;;;;;20.90;19.70;;;;;;;;;;5096544;28;20420;-78
2022/05/22 09:42:41;;;;;;;20.47;19.37;;;;;;;;;;5100306;28;20454;-79
2022/05/22 09:45:17;;;;;;;20.33;19.23;;;;;;;;;;5100518;28;20419;-79
2022/05/22 09:48:03;;;;;;;22.30;20.83;;;;;;;;;;5095475;28;20780;-78
2022/05/22 09:50:35;;;;;;;21.03;19.87;;;;;;;;;;5096758;28;20463;-80
2022/05/22 09:53:07;;;;;;;21.33;20.13;;;;;;;;;;5095096;28;20446;-79
2022/05/22 09:55:50;;;;;;;21.77;20.27;;;;;;;;;;5094976;28;20882;-78
2022/05/22 09:58:46;;;;;;;21.80;20.23;;;;;;;;;;5093036;28;20455;-77
2022/05/22 10:01:29;;;;;;;21.27;19.97;;;;;;;;;;5081784;28;20461;-86
2022/05/22 10:04:09;;;;;;;21.00;19.90;;;;;;;;;;5095285;28;20965;-84
2022/05/22 10:09:47;;;;;;;22.17;20.90;;;;;;;;;;5097761;28;20444;-92
2022/05/22 10:12:21;;;;;;;21.30;20.03;;;;;;;;;;5096954;28;20786;-92
2022/05/22 10:14:54;;;;;;;21.07;19.77;;;;;;;;;;5096966;28;20403;-91
2022/05/22 10:17:39;;;;;;;21.17;20.07;;;;;;;;;;5098035;28;20430;-91
2022/05/22 10:20:21;;;;;;;22.50;21.00;;;;;;;;;;5098064;28;20436;-86
2022/05/22 10:22:55;;;;;;;21.83;20.50;;;;;;;;;;5098089;28;20827;-89
2022/05/22 10:25:40;;;;;;;21.07;19.87;;;;;;;;;;5096143;28;20791;-89
2022/05/22 10:28:12;;;;;;;21.40;20.20;;;;;;;;;;5095518;28;20946;-89
2022/05/22 10:30:41;;;;;;;20.93;19.73;;;;;;;;;;5096191;28;20963;-89
2022/05/22 10:33:11;;;;;;;20.80;19.53;;;;;;;;;;5097323;28;20498;-86
2022/05/22 10:35:52;;;;;;;21.13;19.93;;;;;;;;;;5095312;28;20416;-86
2022/05/22 10:38:28;;;;;;;20.93;19.83;;;;;;;;;;5095258;28;20468;-86
2022/05/22 10:44:03;;;;;;;21.93;20.67;;;;;;;;;;5094785;28;20484;-86
2022/05/22 10:46:37;;;;;;;22.10;20.77;;;;;;;;;;5094633;28;20409;-86
2022/05/22 10:49:15;;;;;;;20.90;19.60;;;;;;;;;;5094419;28;20485;-82
2022/05/22 10:52:03;;;;;;;21.37;20.13;;;;;;;;;;5092196;28;20951;-82
2022/05/22 10:54:39;;;;;;;22.03;20.73;;;;;;;;;;5094523;28;20460;-83
2022/05/22 10:57:10;;;;;;;21.90;20.57;;;;;;;;;;5095080;28;20467;-85
2022/05/22 10:59:39;;;;;;;21.60;20.37;;;;;;;;;;5094634;28;20404;-85
2022/05/22 11:02:07;;;;;;;22.20;21.00;;;;;;;;;;5095438;28;20437;-87
2022/05/22 11:04:37;;;;;;;22.23;20.93;;;;;;;;;;5095331;28;20469;-92
2022/05/22 11:07:05;;;;;;;21.57;20.37;;;;;;;;;;5094981;28;21011;-85
2022/05/22 11:09:34;;;;;;;22.30;20.87;;;;;;;;;;5094372;28;20420;-85
2022/05/22 11:12:11;;;;;;;21.87;20.57;;;;;;;;;;5087897;28;20481;-89
2022/05/22 11:14:40;;;;;;;21.77;20.47;;;;;;;;;;5095712;28;20437;-87
2022/05/22 11:17:09;;;;;;;22.60;21.20;;;;;;;;;;5096531;28;20412;-90
2022/05/22 11:19:37;;;;;;;21.07;19.83;;;;;;;;;;5094645;28;20520;-83
2022/05/22 11:22:11;;;;;;;21.23;19.93;;;;;;;;;;5093695;28;20437;-82
2022/05/22 11:24:43;;;;;;;21.90;20.53;;;;;;;;;;5093539;28;20540;-82
2022/05/22 11:27:16;;;;;;;20.70;19.60;;;;;;;;;;5092170;28;20420;-82
2022/05/22 11:29:51;;;;;;;21.13;19.87;;;;;;;;;;5093147;28;20860;-82
2022/05/22 11:32:28;;;;;;;22.00;20.70;;;;;;;;;;5093153;28;20559;-82
2022/05/22 11:35:10;;;;;;;21.67;20.37;;;;;;;;;;5093359;28;20950;-82
2022/05/22 11:37:46;;;;;;;22.37;20.97;;;;;;;;;;5090770;28;20454;-82
2022/05/22 11:40:32;;;;;;;21.87;20.30;;;;;;;;;;5093364;28;20865;-82
2022/05/22 11:43:17;;;;;;;20.87;19.67;;;;;;;;;;5093013;28;20446;-82
2022/05/22 11:45:53;;;;;;;21.60;20.30;;;;;;;;;;5093126;28;20457;-82
2022/05/22 11:48:35;;;;;;;21.80;20.53;;;;;;;;;;5093023;28;20437;-82
2022/05/22 11:51:07;;;;;;;22.50;21.20;;;;;;;;;;5089136;28;21059;-83
2022/05/22 11:53:52;;;;;;;23.20;21.60;;;;;;;;;;5092857;28;20423;-83
2022/05/22 11:56:25;;;;;;;22.03;20.73;;;;;;;;;;5092483;28;20416;-83
2022/05/22 11:58:58;;;;;;;21.10;19.90;;;;;;;;;;5092888;28;20416;-83
2022/05/22 12:01:30;;;;;;;22.30;21.10;;;;;;;;;;5093026;28;20408;-81
2022/05/22 12:04:03;;;;;;;22.60;21.10;;;;;;;;;;5092702;28;20485;-83
2022/05/22 12:06:40;;;;;;;22.00;20.80;;;;;;;;;;5092966;28;20429;-82
2022/05/22 12:09:10;;;;;;;23.03;21.47;;;;;;;;;;5089967;28;20431;-81
2022/05/22 12:11:41;;;;;;;21.43;20.17;;;;;;;;;;5092534;28;20470;-81
2022/05/22 12:14:20;;;;;;;21.17;19.77;;;;;;;;;;5092807;28;20528;-80
2022/05/22 12:16:53;;;;;;;21.00;19.70;;;;;;;;;;5092016;28;20432;-82
2022/05/22 12:19:24;;;;;;;20.67;19.47;;;;;;;;;;5092545;28;20420;-82
2022/05/22 12:21:57;;;;;;;21.30;19.93;;;;;;;;;;5092814;28;20424;-80
2022/05/22 12:24:28;;;;;;;21.20;19.70;;;;;;;;;;5092390;28;20422;-82
2022/05/22 12:26:56;;;;;;;21.50;20.10;;;;;;;;;;5092537;28;20408;-83
2022/05/22 12:29:27;;;;;;;21.90;20.60;;;;;;;;;;5092408;28;20420;-82
2022/05/22 12:31:57;;;;;;;22.70;21.30;;;;;;;;;;5092305;28;20513;-82
2022/05/22 12:34:32;;;;;;;22.30;21.00;;;;;;;;;;5092273;28;20455;-81
2022/05/22 12:37:01;;;;;;;22.63;21.03;;;;;;;;;;5092537;28;20925;-81
2022/05/22 12:39:30;;;;;;;23.30;21.80;;;;;;;;;;5090745;28;20473;-81
2022/05/22 12:42:01;;;;;;;21.97;20.47;;;;;;;;;;5092624;28;20768;-82
2022/05/22 12:44:29;;;;;;;21.67;20.37;;;;;;;;;;5092740;28;20469;-82
2022/05/22 12:46:58;;;;;;;21.07;19.87;;;;;;;;;;5092890;28;20462;-82
2022/05/22 12:49:26;;;;;;;22.73;20.83;;;;;;;;;;5092248;28;20453;-82
2022/05/22 12:52:01;;;;;;;21.57;20.07;;;;;;;;;;5091623;28;20485;-81
2022/05/22 12:54:29;;;;;;;22.23;20.83;;;;;;;;;;5092138;28;20449;-82
2022/05/22 12:57:07;;;;;;;21.97;20.67;;;;;;;;;;5092269;28;20433;-82
2022/05/22 12:59:35;;;;;;;21.70;20.50;;;;;;;;;;5092350;28;20460;-82
2022/05/22 13:02:04;;;;;;;21.03;19.77;;;;;;;;;;5092240;28;20404;-82
2022/05/22 13:04:35;;;;;;;22.10;20.80;;;;;;;;;;5086716;28;20499;-82
2022/05/22 13:07:03;;;;;;;22.20;20.83;;;;;;;;;;5087738;28;20819;-81
2022/05/22 13:09:39;;;;;;;21.83;20.43;;;;;;;;;;5095610;28;20429;-81
2022/05/22 13:12:09;;;;;;;20.93;19.83;;;;;;;;;;5094310;28;20460;-81
2022/05/22 13:14:40;;;;;;;22.10;20.90;;;;;;;;;;5096100;28;20751;-81
2022/05/22 13:17:10;;;;;;;21.40;20.10;;;;;;;;;;5094510;28;20445;-82
2022/05/22 13:19:48;;;;;;;21.30;20.00;;;;;;;;;;5095605;28;20927;-82
2022/05/22 13:22:26;;;;;;;21.93;20.57;;;;;;;;;;5095723;28;20878;-83
2022/05/22 13:24:54;;;;;;;21.87;20.47;;;;;;;;;;5080609;28;20466;-83
2022/05/22 13:27:26;;;;;;;21.30;20.00;;;;;;;;;;5075448;28;20427;-83
2022/05/22 13:29:56;;;;;;;21.17;19.87;;;;;;;;;;5075757;28;20437;-83
2022/05/22 13:32:28;;;;;;;21.17;19.87;;;;;;;;;;5075638;28;20900;-83
2022/05/22 13:34:56;;;;;;;21.20;20.00;;;;;;;;;;5075554;28;20517;-83
2022/05/22 13:37:27;;;;;;;22.10;20.60;;;;;;;;;;5075611;28;20522;-83
2022/05/22 13:39:58;;;;;;;20.90;19.70;;;;;;;;;;5075125;28;20979;-83
2022/05/22 13:42:46;;;;;;;21.83;20.47;;;;;;;;;;5075299;28;20435;-83
2022/05/22 13:45:21;;;;;;;23.00;21.77;;;;;;;;;;5075069;28;20453;-83
2022/05/22 13:48:01;;;;;;;22.80;21.50;;;;;;;;;;5088941;28;20457;-82
2022/05/22 13:53:28;;;;;;;22.43;20.80;;;;;;;;;;5095086;28;20480;-82
2022/05/22 13:55:56;;;;;;;22.73;21.43;;;;;;;;;;5094920;28;20949;-81
2022/05/22 13:58:25;;;;;;;21.60;20.40;;;;;;;;;;5093011;28;20464;-82
2022/05/22 14:00:53;;;;;;;22.27;21.00;;;;;;;;;;5094908;28;20434;-82
2022/05/22 14:03:26;;;;;;;22.30;21.00;;;;;;;;;;5094631;28;20449;-81
2022/05/22 14:05:56;;;;;;;23.27;21.70;;;;;;;;;;5094690;28;20473;-82
2022/05/22 14:08:24;;;;;;;22.40;21.10;;;;;;;;;;5095072;28;20495;-82
2022/05/22 14:10:57;;;;;;;22.30;21.10;;;;;;;;;;5094790;28;20438;-82
2022/05/22 14:13:26;;;;;;;22.77;21.57;;;;;;;;;;5094527;28;20880;-82
2022/05/22 14:15:54;;;;;;;22.07;20.87;;;;;;;;;;5094957;28;20915;-82
2022/05/22 14:18:25;;;;;;;21.60;20.33;;;;;;;;;;5094443;28;20412;-82
2022/05/22 14:20:53;;;;;;;22.27;21.07;;;;;;;;;;5094809;28;20436;-82
2022/05/22 14:23:22;;;;;;;21.90;20.70;;;;;;;;;;5094769;28;20446;-82
2022/05/22 14:25:55;;;;;;;22.90;21.40;;;;;;;;;;5094759;28;20441;-82
2022/05/22 14:28:28;;;;;;;21.23;20.13;;;;;;;;;;5094412;28;20434;-82
2022/05/22 14:30:55;;;;;;;21.20;19.90;;;;;;;;;;5094390;28;20415;-82
2022/05/22 14:33:24;;;;;;;22.53;21.03;;;;;;;;;;5094427;28;20462;-83
2022/05/22 14:35:53;;;;;;;22.03;20.73;;;;;;;;;;5096525;28;20437;-93
2022/05/22 14:38:22;;;;;;;22.00;20.63;;;;;;;;;;5094521;28;20462;-95
2022/05/22 14:40:51;;;;;;;22.73;21.17;;;;;;;;;;5092428;27;20465;-89
2022/05/22 14:43:19;;;;;;;22.97;21.47;;;;;;;;;;5096278;28;20507;-89
2022/05/22 14:45:49;;;;;;;22.57;21.17;;;;;;;;;;5091629;28;20429;-84
2022/05/22 14:48:18;;;;;;;22.13;20.83;;;;;;;;;;5074433;28;20417;-83